createdAt,value
2022-11-16T00:02:19.872Z,20.53
2022-11-16T00:04:48.658Z,18.47
2022-11-16T00:07:17.524Z,16.63
2022-11-16T00:09:48.228Z,19.40
2022-11-16T00:12:16.918Z,19.23
2022-11-16T00:14:45.520Z,20.00
2022-11-16T00:17:14.257Z,18.53
2022-11-16T00:19:42.998Z,17.87
2022-11-16T00:22:11.634Z,18.67
2022-11-16T00:24:40.422Z,16.07
2022-11-16T00:27:10.584Z,19.27
2022-11-16T00:29:39.313Z,17.07
2022-11-16T00:32:07.975Z,19.07
2022-11-16T00:34:36.655Z,17.33
2022-11-16T00:37:05.382Z,18.43
2022-11-16T00:39:34.540Z,15.33
2022-11-16T00:42:03.329Z,16.30
2022-11-16T00:44:33.696Z,15.77
2022-11-16T00:47:02.389Z,16.00
2022-11-16T00:49:30.969Z,16.93
2022-11-16T00:51:59.791Z,16.33
2022-11-16T00:54:28.965Z,15.13
2022-11-16T00:56:57.649Z,17.67
2022-11-16T00:59:27.629Z,15.37
2022-11-16T01:02:00.354Z,17.27
2022-11-16T01:04:29.036Z,15.97
2022-11-16T01:06:57.736Z,14.70
2022-11-16T01:09:26.602Z,17.80
2022-11-16T01:12:10.692Z,16.90
2022-11-16T01:14:41.728Z,15.93
2022-11-16T01:17:12.240Z,18.67
2022-11-16T01:19:41.642Z,16.60
2022-11-16T01:22:10.247Z,15.00
2022-11-16T01:24:39.018Z,15.90
2022-11-16T01:27:07.615Z,16.43
2022-11-16T01:29:39.084Z,16.10
2022-11-16T01:32:07.812Z,16.63
2022-11-16T01:34:38.566Z,15.53
2022-11-16T01:37:19.183Z,17.07
2022-11-16T01:39:49.897Z,15.43
2022-11-16T01:42:19.906Z,18.47
2022-11-16T01:45:02.827Z,17.27
2022-11-16T01:47:31.721Z,16.23
2022-11-16T01:50:09.356Z,17.83
2022-11-16T01:52:42.840Z,17.00
2022-11-16T01:55:12.675Z,15.13
2022-11-16T01:58:13.488Z,16.23
2022-11-16T02:00:42.619Z,16.77
2022-11-16T02:03:29.092Z,15.70
2022-11-16T02:06:31.807Z,21.57
2022-11-16T02:09:47.145Z,18.70
2022-11-16T02:12:32.705Z,19.50
2022-11-16T02:15:11.816Z,20.13
2022-11-16T02:17:49.919Z,19.73
2022-11-16T02:20:45.392Z,18.63
2022-11-16T02:23:30.340Z,21.03
2022-11-16T02:26:08.295Z,21.07
2022-11-16T02:28:49.782Z,18.93
2022-11-16T02:31:28.730Z,20.07
2022-11-16T02:34:01.449Z,19.70
2022-11-16T02:36:30.237Z,19.80
2022-11-16T02:39:04.073Z,19.97
2022-11-16T02:41:35.194Z,21.87
2022-11-16T02:44:08.432Z,21.00
2022-11-16T02:46:44.423Z,20.93
2022-11-16T02:49:18.230Z,20.30
2022-11-16T02:51:48.485Z,20.60
2022-11-16T02:54:19.578Z,20.37
2022-11-16T02:56:56.919Z,22.13
2022-11-16T02:59:34.639Z,20.03
2022-11-16T03:02:16.567Z,21.40
2022-11-16T03:04:49.762Z,22.13
2022-11-16T03:07:24.189Z,22.30
2022-11-16T03:09:54.785Z,23.87
2022-11-16T03:12:29.189Z,22.33
2022-11-16T03:15:02.771Z,25.03
2022-11-16T03:17:38.842Z,21.23
2022-11-16T03:20:12.994Z,24.37
2022-11-16T03:22:45.414Z,22.77
2022-11-16T03:25:17.722Z,24.43
2022-11-16T03:27:53.983Z,24.33
2022-11-16T03:30:24.377Z,25.83
2022-11-16T03:33:05.355Z,22.87
2022-11-16T03:35:39.813Z,25.40
2022-11-16T03:38:09.745Z,25.40
2022-11-16T03:40:45.436Z,24.20
2022-11-16T03:43:14.973Z,25.60
2022-11-16T03:45:44.646Z,23.93
2022-11-16T03:48:14.901Z,26.83
2022-11-16T03:50:45.105Z,25.83
2022-11-16T03:53:14.758Z,25.47
2022-11-16T03:55:49.647Z,23.27
2022-11-16T03:58:19.275Z,23.57
2022-11-16T04:00:48.565Z,24.47
2022-11-16T04:03:18.681Z,25.17
2022-11-16T04:06:02.748Z,23.67
2022-11-16T04:08:49.017Z,22.77
2022-11-16T04:11:37.604Z,22.20
2022-11-16T04:14:23.859Z,25.23
2022-11-16T04:17:09.824Z,27.53
2022-11-16T04:19:58.433Z,23.67
2022-11-16T04:22:50.383Z,22.83
2022-11-16T04:25:22.887Z,23.33
2022-11-16T04:28:09.018Z,25.87
2022-11-16T04:30:51.966Z,26.17
2022-11-16T04:33:38.885Z,26.43
2022-11-16T04:36:27.698Z,26.67
2022-11-16T04:38:56.548Z,27.70
2022-11-16T04:41:43.115Z,24.57
2022-11-16T04:44:12.324Z,25.03
2022-11-16T04:46:58.662Z,26.17
2022-11-16T04:49:28.281Z,25.80
2022-11-16T04:52:00.514Z,25.63
2022-11-16T04:54:31.791Z,28.03
2022-11-16T04:57:00.859Z,26.60
2022-11-16T04:59:30.142Z,30.17
2022-11-16T05:02:10.842Z,28.80
2022-11-16T05:04:51.180Z,29.03
2022-11-16T05:07:23.152Z,27.80
2022-11-16T05:09:54.261Z,28.97
2022-11-16T05:12:24.945Z,26.37
2022-11-16T05:14:58.086Z,28.83
2022-11-16T05:17:29.794Z,26.40
2022-11-16T05:20:18.558Z,26.53
2022-11-16T05:22:56.476Z,26.60
2022-11-16T05:25:31.276Z,27.20
2022-11-16T05:28:03.296Z,30.73
2022-11-16T05:30:34.840Z,28.30
2022-11-16T05:33:05.297Z,30.53
2022-11-16T05:35:38.457Z,30.40
2022-11-16T05:38:09.550Z,28.23
2022-11-16T05:40:43.070Z,27.87
2022-11-16T05:43:12.477Z,27.27
2022-11-16T05:45:49.684Z,29.27
2022-11-16T05:48:18.504Z,33.53
2022-11-16T05:50:47.311Z,33.13
2022-11-16T05:53:24.508Z,28.40
2022-11-16T05:55:53.672Z,28.67
2022-11-16T05:58:23.332Z,27.40
2022-11-16T06:00:53.295Z,28.27
2022-11-16T06:03:22.340Z,27.80
2022-11-16T06:05:55.669Z,29.87
2022-11-16T06:08:26.865Z,29.67
2022-11-16T06:10:56.958Z,28.90
2022-11-16T06:13:25.536Z,29.20
2022-11-16T06:15:58.664Z,30.20
2022-11-16T06:18:28.074Z,31.03
2022-11-16T06:20:57.164Z,29.47
2022-11-16T06:23:27.356Z,31.77
2022-11-16T06:25:56.884Z,29.07
2022-11-16T06:28:28.838Z,27.83
2022-11-16T06:30:58.289Z,28.73
2022-11-16T06:33:33.177Z,29.90
2022-11-16T06:36:04.722Z,28.73
2022-11-16T06:38:35.651Z,31.13
2022-11-16T06:41:05.068Z,30.50
2022-11-16T06:43:39.306Z,30.23
2022-11-16T06:46:08.817Z,28.60
2022-11-16T06:48:40.002Z,28.63
2022-11-16T06:51:13.296Z,28.73
2022-11-16T06:53:43.566Z,30.67
2022-11-16T06:56:15.859Z,31.37
2022-11-16T06:58:53.286Z,29.87
2022-11-16T07:01:23.200Z,26.50
2022-11-16T07:03:55.761Z,28.30
2022-11-16T07:06:24.489Z,26.87
2022-11-16T07:08:54.892Z,27.70
2022-11-16T07:11:27.417Z,27.17
2022-11-16T07:13:56.396Z,26.27
2022-11-16T07:16:25.197Z,26.53
2022-11-16T07:18:59.315Z,25.77
2022-11-16T07:21:31.333Z,26.03
2022-11-16T07:24:03.943Z,25.87
2022-11-16T07:26:34.630Z,27.57
2022-11-16T07:29:09.466Z,27.20
2022-11-16T07:31:42.320Z,27.43
2022-11-16T07:35:27.699Z,33.40
2022-11-16T07:39:09.407Z,27.67
2022-11-16T07:42:53.010Z,26.30
2022-11-16T07:46:48.500Z,26.37
2022-11-16T07:49:37.673Z,27.70
2022-11-16T07:52:12.085Z,26.17
2022-11-16T07:54:51.350Z,25.77
2022-11-16T07:57:21.163Z,24.93
2022-11-16T07:59:50.874Z,25.17
2022-11-16T08:02:19.582Z,24.53
2022-11-16T08:04:49.721Z,26.93
2022-11-16T08:07:20.140Z,27.27
2022-11-16T08:09:54.149Z,25.30
2022-11-16T08:12:24.514Z,28.70
2022-11-16T08:14:54.233Z,26.50
2022-11-16T08:17:22.928Z,24.33
2022-11-16T08:19:54.645Z,25.10
2022-11-16T08:22:23.802Z,24.90
2022-11-16T08:24:52.436Z,26.10
2022-11-16T08:27:21.266Z,25.67
2022-11-16T08:29:54.070Z,25.77
2022-11-16T08:32:23.129Z,24.17
2022-11-16T08:34:53.366Z,25.90
2022-11-16T08:37:22.197Z,23.80
2022-11-16T08:39:50.838Z,26.43
2022-11-16T08:42:21.518Z,27.33
2022-11-16T08:44:51.474Z,25.23
2022-11-16T08:47:21.962Z,26.37
2022-11-16T08:50:01.176Z,27.47
2022-11-16T08:52:32.458Z,26.37
2022-11-16T08:55:02.647Z,30.10
2022-11-16T08:57:31.862Z,25.57
2022-11-16T09:00:05.962Z,26.33
2022-11-16T09:02:34.629Z,25.47
2022-11-16T09:05:05.140Z,21.67
2022-11-16T09:07:33.942Z,21.93
2022-11-16T09:10:02.638Z,23.63
2022-11-16T09:12:31.346Z,19.30
2022-11-16T09:15:00.104Z,22.33
2022-11-16T09:17:28.813Z,21.60
2022-11-16T09:19:57.459Z,21.40
2022-11-16T09:22:27.571Z,19.90
2022-11-16T09:24:56.347Z,21.60
2022-11-16T09:27:25.012Z,19.47
2022-11-16T09:29:53.644Z,19.83
2022-11-16T09:32:22.293Z,19.93
2022-11-16T09:34:50.954Z,21.83
2022-11-16T09:37:19.671Z,20.67
2022-11-16T09:39:49.730Z,21.23
2022-11-16T09:42:36.826Z,20.00
2022-11-16T09:45:08.597Z,19.60
2022-11-16T09:47:45.703Z,22.60
2022-11-16T09:50:28.301Z,23.20
2022-11-16T09:53:01.519Z,19.63
2022-11-16T09:55:38.147Z,19.30
2022-11-16T09:58:17.565Z,19.33
2022-11-16T10:00:51.564Z,20.00
2022-11-16T10:03:20.288Z,19.47
2022-11-16T10:05:55.496Z,19.60
2022-11-16T10:08:32.498Z,18.07
2022-11-16T10:11:13.116Z,20.83
2022-11-16T10:13:49.985Z,18.17
2022-11-16T10:16:25.169Z,19.10
2022-11-16T10:19:00.804Z,17.33
2022-11-16T10:21:49.248Z,17.70
2022-11-16T10:24:44.382Z,17.03
2022-11-16T10:27:38.027Z,15.17
2022-11-16T10:30:14.184Z,17.47
2022-11-16T10:32:50.762Z,15.13
2022-11-16T10:35:25.202Z,17.77
2022-11-16T10:37:54.001Z,13.13
2022-11-16T10:40:25.171Z,14.70
2022-11-16T10:43:06.174Z,14.60
2022-11-16T10:45:40.602Z,13.33
2022-11-16T10:48:19.072Z,14.30
2022-11-16T10:50:50.002Z,11.33
2022-11-16T10:53:30.194Z,14.00
2022-11-16T10:56:14.680Z,14.07
2022-11-16T10:58:57.130Z,10.40
2022-11-16T11:01:37.626Z,13.93
2022-11-16T11:04:18.193Z,12.23
2022-11-16T11:06:48.175Z,13.60
2022-11-16T11:09:29.160Z,12.53
2022-11-16T11:12:31.631Z,12.27
2022-11-16T11:15:04.135Z,11.00
2022-11-16T11:17:34.171Z,12.53
2022-11-16T11:20:06.092Z,11.27
2022-11-16T11:22:42.303Z,11.30
2022-11-16T11:25:21.369Z,11.87
2022-11-16T11:27:50.900Z,13.47
2022-11-16T11:30:23.274Z,12.67
2022-11-16T11:32:53.175Z,13.10
2022-11-16T11:35:28.041Z,13.60
2022-11-16T11:38:02.184Z,12.97
2022-11-16T11:40:34.034Z,13.23
2022-11-16T11:43:05.249Z,13.63
2022-11-16T11:45:45.925Z,13.50
2022-11-16T11:48:29.216Z,13.77
2022-11-16T11:51:02.361Z,16.30
2022-11-16T11:53:51.711Z,14.27
2022-11-16T11:56:20.823Z,15.23
2022-11-16T11:58:51.515Z,15.53
2022-11-16T12:01:57.174Z,15.43
2022-11-16T12:05:10.666Z,13.83
2022-11-16T12:08:04.325Z,14.40
2022-11-16T12:10:39.818Z,16.50
2022-11-16T12:13:29.454Z,13.47
2022-11-16T12:16:09.230Z,14.97
2022-11-16T12:18:52.567Z,14.55
2022-11-16T12:21:29.127Z,14.80
2022-11-16T12:24:11.224Z,15.60
2022-11-16T12:26:51.320Z,15.80
2022-11-16T12:29:27.295Z,13.50
2022-11-16T12:32:25.532Z,15.03
2022-11-16T12:35:16.321Z,13.73
2022-11-16T12:37:51.715Z,16.03
2022-11-16T12:40:37.240Z,14.20
2022-11-16T12:43:16.835Z,15.70
2022-11-16T12:46:00.179Z,13.53
2022-11-16T12:48:45.801Z,15.30
2022-11-16T12:51:31.545Z,16.33
2022-11-16T12:54:17.945Z,17.20
2022-11-16T12:56:57.115Z,16.17
2022-11-16T12:59:42.126Z,16.40
2022-11-16T13:02:25.564Z,14.67
2022-11-16T13:05:00.769Z,15.10
2022-11-16T13:07:32.889Z,17.27
2022-11-16T13:10:08.429Z,16.07
2022-11-16T13:12:39.671Z,17.00
2022-11-16T13:15:19.416Z,16.80
2022-11-16T13:17:54.683Z,17.33
2022-11-16T13:20:33.494Z,15.93
2022-11-16T13:23:07.057Z,16.77
2022-11-16T13:25:40.100Z,20.83
2022-11-16T13:28:18.764Z,15.33
2022-11-16T13:30:58.760Z,16.50
2022-11-16T13:33:34.992Z,17.53
2022-11-16T13:36:37.249Z,15.27
2022-11-16T13:39:06.514Z,16.87
2022-11-16T13:41:37.066Z,13.93
2022-11-16T13:44:14.856Z,15.13
2022-11-16T13:46:56.209Z,16.60
2022-11-16T13:49:29.508Z,13.93
2022-11-16T13:52:11.601Z,15.53
2022-11-16T13:54:52.535Z,14.83
2022-11-16T13:57:25.255Z,14.20
2022-11-16T14:00:09.446Z,14.03
2022-11-16T14:02:39.430Z,12.90
2022-11-16T14:05:17.653Z,12.75
2022-11-16T14:07:49.998Z,11.45
2022-11-16T14:11:01.120Z,14.73
2022-11-16T14:13:40.587Z,13.60
2022-11-16T14:16:55.065Z,12.43
2022-11-16T14:19:58.332Z,14.33
2022-11-16T14:22:44.612Z,15.93
2022-11-16T14:25:26.245Z,14.10
2022-11-16T14:28:03.134Z,12.80
2022-11-16T14:30:36.939Z,13.40
2022-11-16T14:33:05.848Z,15.73
2022-11-16T14:35:38.926Z,13.97
2022-11-16T14:38:28.269Z,14.03
2022-11-16T14:40:59.959Z,16.50
2022-11-16T14:43:32.910Z,16.60
2022-11-16T14:46:06.247Z,18.50
2022-11-16T14:48:35.767Z,15.50
2022-11-16T14:51:10.187Z,17.17
2022-11-16T14:53:45.803Z,17.00
2022-11-16T14:56:16.125Z,19.47
2022-11-16T14:58:53.483Z,23.73
2022-11-16T15:01:25.300Z,19.67
2022-11-16T15:03:57.775Z,20.93
2022-11-16T15:06:28.279Z,22.23
2022-11-16T15:09:01.851Z,22.17
2022-11-16T15:11:47.089Z,24.80
2022-11-16T15:14:20.486Z,24.37
2022-11-16T15:16:51.495Z,24.53
2022-11-16T15:19:20.303Z,25.77
2022-11-16T15:21:54.996Z,27.07
2022-11-16T15:24:30.938Z,27.03
2022-11-16T15:27:12.358Z,26.10
2022-11-16T15:29:41.344Z,24.60
2022-11-16T15:32:17.047Z,24.73
2022-11-16T15:34:50.501Z,31.10
2022-11-16T15:37:29.891Z,29.80
2022-11-16T15:40:00.158Z,33.00
2022-11-16T15:42:30.306Z,33.70
2022-11-16T15:45:02.580Z,33.27
2022-11-16T15:47:31.861Z,36.37
2022-11-16T15:50:00.681Z,55.97
2022-11-16T15:52:54.756Z,42.13
2022-11-16T15:55:32.006Z,51.03
2022-11-16T15:58:07.230Z,103.07
2022-11-16T16:00:38.092Z,60.03
2022-11-16T16:03:16.209Z,89.93
2022-11-16T16:05:45.248Z,90.53
2022-11-16T16:08:33.342Z,70.43
2022-11-16T16:11:05.158Z,59.13
2022-11-16T16:13:36.686Z,50.90
2022-11-16T16:16:27.473Z,74.90
2022-11-16T16:19:00.832Z,58.80
2022-11-16T16:21:43.325Z,63.17
2022-11-16T16:24:41.493Z,189.23
2022-11-16T16:27:15.645Z,144.50
2022-11-16T16:29:44.799Z,179.20
2022-11-16T16:32:17.323Z,191.43
2022-11-16T16:34:46.016Z,169.97
2022-11-16T16:37:14.907Z,244.87
2022-11-16T16:39:45.272Z,484.93
2022-11-16T16:42:17.081Z,307.07
2022-11-16T16:44:47.293Z,384.13
2022-11-16T16:47:16.870Z,154.67
2022-11-16T16:49:45.969Z,302.87
2022-11-16T16:52:15.252Z,289.90
2022-11-16T16:54:45.679Z,532.40
2022-11-16T16:57:16.034Z,525.67
2022-11-16T16:59:45.605Z,431.23
2022-11-16T17:02:14.620Z,412.10
2022-11-16T17:04:44.149Z,241.03
2022-11-16T17:07:12.931Z,279.00
2022-11-16T17:09:41.708Z,249.30
2022-11-16T17:12:12.312Z,188.67
2022-11-16T17:14:42.538Z,308.43
2022-11-16T17:17:11.232Z,184.40
2022-11-16T17:19:39.992Z,154.97
2022-11-16T17:22:08.448Z,150.03
2022-11-16T17:24:38.451Z,149.57
2022-11-16T17:27:06.961Z,153.57
2022-11-16T17:29:37.074Z,186.90
2022-11-16T17:32:06.312Z,171.73
2022-11-16T17:34:35.042Z,102.57
2022-11-16T17:37:03.681Z,200.77
2022-11-16T17:39:32.322Z,381.23
2022-11-16T17:42:03.328Z,168.67
2022-11-16T17:44:32.249Z,169.90
2022-11-16T17:47:02.583Z,117.90
2022-11-16T17:49:31.172Z,145.30
2022-11-16T17:52:01.795Z,145.67
2022-11-16T17:54:30.495Z,178.93
2022-11-16T17:57:00.288Z,178.67
2022-11-16T17:59:29.992Z,136.70
2022-11-16T18:01:58.973Z,206.50
2022-11-16T18:04:29.174Z,216.50
2022-11-16T18:06:59.802Z,136.87
2022-11-16T18:09:28.573Z,197.83
2022-11-16T18:11:58.695Z,143.17
2022-11-16T18:14:28.117Z,176.53
2022-11-16T18:16:56.714Z,250.50
2022-11-16T18:19:25.473Z,216.70
2022-11-16T18:21:55.596Z,226.33
2022-11-16T18:24:24.259Z,234.60
2022-11-16T18:26:52.861Z,298.17
2022-11-16T18:29:22.367Z,175.73
2022-11-16T18:31:51.015Z,185.57
2022-11-16T18:34:19.658Z,188.70
2022-11-16T18:36:50.950Z,102.90
2022-11-16T18:39:21.173Z,147.47
2022-11-16T18:41:55.065Z,107.47
2022-11-16T18:44:24.429Z,124.50
2022-11-16T18:46:53.017Z,96.30
2022-11-16T18:49:21.887Z,105.37
2022-11-16T18:51:50.759Z,124.33
2022-11-16T18:54:20.983Z,136.57
2022-11-16T18:56:51.049Z,144.73
2022-11-16T18:59:19.731Z,107.00
2022-11-16T19:01:48.444Z,130.90
2022-11-16T19:04:17.016Z,226.80
2022-11-16T19:06:45.806Z,185.30
2022-11-16T19:09:15.621Z,185.97
2022-11-16T19:11:45.956Z,129.27
2022-11-16T19:14:14.801Z,123.20
2022-11-16T19:16:54.075Z,100.87
2022-11-16T19:19:24.319Z,85.93
2022-11-16T19:21:53.302Z,84.77
2022-11-16T19:24:22.124Z,76.27
2022-11-16T19:26:53.711Z,67.07
2022-11-16T19:29:22.484Z,81.07
2022-11-16T19:31:51.390Z,90.20
2022-11-16T19:34:20.075Z,61.87
2022-11-16T19:36:49.058Z,83.80
2022-11-16T19:39:18.466Z,88.00
2022-11-16T19:41:49.488Z,92.97
2022-11-16T19:44:20.333Z,53.80
2022-11-16T19:46:49.860Z,73.13
2022-11-16T19:49:20.397Z,61.40
2022-11-16T19:51:50.331Z,52.17
2022-11-16T19:54:19.420Z,54.43
2022-11-16T19:56:54.746Z,49.57
2022-11-16T19:59:26.300Z,50.20
2022-11-16T20:01:55.548Z,61.03
2022-11-16T20:04:25.749Z,56.73
2022-11-16T20:06:55.135Z,60.47
2022-11-16T20:09:24.734Z,66.20
2022-11-16T20:11:55.419Z,107.03
2022-11-16T20:14:26.689Z,65.40
2022-11-16T20:16:56.328Z,68.47
2022-11-16T20:19:25.919Z,63.93
2022-11-16T20:21:55.805Z,74.60
2022-11-16T20:24:25.311Z,64.17
2022-11-16T20:26:54.915Z,63.50
2022-11-16T20:29:26.109Z,58.50
2022-11-16T20:31:55.489Z,61.40
2022-11-16T20:34:24.504Z,55.63
2022-11-16T20:36:53.677Z,56.30
2022-11-16T20:39:23.406Z,58.33
2022-11-16T20:41:52.438Z,54.77
2022-11-16T20:44:22.742Z,56.13
2022-11-16T20:46:53.827Z,55.97
2022-11-16T20:49:23.238Z,59.80
2022-11-16T20:51:52.261Z,67.10
2022-11-16T20:54:21.361Z,60.03
2022-11-16T20:56:50.768Z,52.93
2022-11-16T20:59:19.926Z,61.90
2022-11-16T21:01:49.101Z,61.83
2022-11-16T21:04:20.780Z,57.63
2022-11-16T21:06:49.634Z,58.70
2022-11-16T21:09:23.017Z,56.53
2022-11-16T21:12:09.179Z,53.17
2022-11-16T21:14:39.187Z,57.20
2022-11-16T21:17:07.955Z,49.53
2022-11-16T21:19:38.114Z,51.53
2022-11-16T21:22:06.835Z,49.03
2022-11-16T21:24:35.554Z,47.97
2022-11-16T21:27:04.176Z,50.90
2022-11-16T21:29:32.887Z,44.50
2022-11-16T21:32:01.543Z,41.47
2022-11-16T21:34:34.666Z,42.13
2022-11-16T21:37:07.542Z,37.60
2022-11-16T21:39:36.154Z,36.27
2022-11-16T21:42:05.223Z,36.43
2022-11-16T21:44:42.052Z,35.40
2022-11-16T21:47:12.167Z,37.17
2022-11-16T21:50:02.353Z,34.13
2022-11-16T21:52:30.945Z,31.33
2022-11-16T21:55:02.146Z,30.53
2022-11-16T21:57:30.698Z,29.40
2022-11-16T22:00:01.048Z,28.07
2022-11-16T22:02:29.772Z,28.40
2022-11-16T22:05:15.551Z,30.30
2022-11-16T22:07:45.829Z,26.50
2022-11-16T22:10:14.941Z,26.00
2022-11-16T22:12:43.544Z,22.30
2022-11-16T22:15:12.706Z,23.60
2022-11-16T22:17:44.544Z,24.60
2022-11-16T22:20:13.882Z,22.97
2022-11-16T22:22:42.387Z,21.87
2022-11-16T22:25:14.038Z,23.70
2022-11-16T22:28:13.459Z,21.73
2022-11-16T22:30:31.691Z,21.90
2022-11-16T22:33:00.450Z,23.90
2022-11-16T22:35:29.147Z,22.20
2022-11-16T22:37:59.357Z,23.10
2022-11-16T22:40:29.509Z,24.93
2022-11-16T22:42:58.954Z,25.30
2022-11-16T22:45:28.097Z,26.47
2022-11-16T22:47:56.887Z,24.37
2022-11-16T22:50:25.459Z,24.43
2022-11-16T22:52:54.186Z,23.23
2022-11-16T22:55:22.851Z,23.30
2022-11-16T22:57:53.085Z,26.07
2022-11-16T23:00:22.168Z,23.93
2022-11-16T23:02:50.939Z,22.00
2022-11-16T23:05:19.647Z,23.67
2022-11-16T23:07:48.343Z,24.23
2022-11-16T23:10:18.077Z,26.17
2022-11-16T23:13:23.503Z,24.67
2022-11-16T23:15:52.118Z,23.53
2022-11-16T23:18:20.875Z,24.00
2022-11-16T23:21:07.171Z,22.60
2022-11-16T23:23:52.919Z,24.97
2022-11-16T23:26:41.726Z,25.20
2022-11-16T23:29:12.670Z,24.50
2022-11-16T23:31:41.395Z,26.77
2022-11-16T23:34:10.195Z,24.67
2022-11-16T23:36:38.787Z,27.93
2022-11-16T23:39:07.458Z,27.63
2022-11-16T23:41:53.231Z,30.03
2022-11-16T23:44:23.505Z,27.60
2022-11-16T23:46:52.084Z,30.50
2022-11-16T23:49:20.728Z,31.73
2022-11-16T23:51:49.507Z,32.40
2022-11-16T23:54:18.254Z,32.30
2022-11-16T23:56:47.011Z,33.37
2022-11-16T23:59:15.765Z,34.33
